sensor_id;sensor_type;location;lat;lon;timestamp;P1;durP1;ratioP1;P2;durP2;ratioP2
47287;SDS011;33020;53.008;13.558;2023-05-07T00:00:34;13.67;;;9.93;;
47287;SDS011;33020;53.008;13.558;2023-05-07T00:03:04;12.97;;;9.53;;
47287;SDS011;33020;53.008;13.558;2023-05-07T00:05:33;14.27;;;9.50;;
47287;SDS011;33020;53.008;13.558;2023-05-07T00:08:00;11.33;;;9.13;;
47287;SDS011;33020;53.008;13.558;2023-05-07T00:10:27;13.47;;;9.57;;
47287;SDS011;33020;53.008;13.558;2023-05-07T00:12:54;11.63;;;8.80;;
47287;SDS011;33020;53.008;13.558;2023-05-07T00:15:21;12.93;;;9.30;;
47287;SDS011;33020;53.008;13.558;2023-05-07T00:17:48;12.73;;;9.83;;
47287;SDS011;33020;53.008;13.558;2023-05-07T00:20:15;11.37;;;9.10;;
47287;SDS011;33020;53.008;13.558;2023-05-07T00:22:42;15.67;;;9.90;;
47287;SDS011;33020;53.008;13.558;2023-05-07T00:25:09;13.67;;;9.70;;
47287;SDS011;33020;53.008;13.558;2023-05-07T00:27:37;14.10;;;9.30;;
47287;SDS011;33020;53.008;13.558;2023-05-07T00:30:04;13.67;;;9.67;;
47287;SDS011;33020;53.008;13.558;2023-05-07T00:32:31;11.80;;;8.97;;
47287;SDS011;33020;53.008;13.558;2023-05-07T00:34:58;12.13;;;8.80;;
47287;SDS011;33020;53.008;13.558;2023-05-07T00:37:25;13.93;;;9.70;;
47287;SDS011;33020;53.008;13.558;2023-05-07T00:39:52;13.27;;;8.97;;
47287;SDS011;33020;53.008;13.558;2023-05-07T00:42:19;11.27;;;8.97;;
47287;SDS011;33020;53.008;13.558;2023-05-07T00:44:46;15.33;;;9.93;;
47287;SDS011;33020;53.008;13.558;2023-05-07T00:47:13;14.10;;;9.70;;
47287;SDS011;33020;53.008;13.558;2023-05-07T00:49:44;13.93;;;9.30;;
47287;SDS011;33020;53.008;13.558;2023-05-07T00:52:13;13.30;;;9.53;;
47287;SDS011;33020;53.008;13.558;2023-05-07T00:54:41;15.37;;;10.20;;
47287;SDS011;33020;53.008;13.558;2023-05-07T00:57:09;13.10;;;9.50;;
47287;SDS011;33020;53.008;13.558;2023-05-07T00:59:36;12.43;;;9.50;;
47287;SDS011;33020;53.008;13.558;2023-05-07T01:02:03;14.13;;;9.43;;
47287;SDS011;33020;53.008;13.558;2023-05-07T01:04:30;12.87;;;8.53;;
47287;SDS011;33020;53.008;13.558;2023-05-07T01:06:57;11.63;;;9.13;;
47287;SDS011;33020;53.008;13.558;2023-05-07T01:09:25;12.60;;;9.40;;
47287;SDS011;33020;53.008;13.558;2023-05-07T01:11:52;11.43;;;7.83;;
47287;SDS011;33020;53.008;13.558;2023-05-07T01:14:20;11.63;;;8.67;;
47287;SDS011;33020;53.008;13.558;2023-05-07T01:16:47;13.10;;;9.07;;
47287;SDS011;33020;53.008;13.558;2023-05-07T01:19:15;12.93;;;9.43;;
47287;SDS011;33020;53.008;13.558;2023-05-07T01:21:48;12.77;;;8.17;;
47287;SDS011;33020;53.008;13.558;2023-05-07T01:24:15;12.20;;;8.80;;
47287;SDS011;33020;53.008;13.558;2023-05-07T01:26:43;12.87;;;8.77;;
47287;SDS011;33020;53.008;13.558;2023-05-07T01:29:11;13.63;;;9.17;;
47287;SDS011;33020;53.008;13.558;2023-05-07T01:31:38;13.07;;;9.40;;
47287;SDS011;33020;53.008;13.558;2023-05-07T01:34:06;12.63;;;9.17;;
47287;SDS011;33020;53.008;13.558;2023-05-07T01:36:34;12.40;;;8.50;;
47287;SDS011;33020;53.008;13.558;2023-05-07T01:39:03;12.23;;;8.93;;
47287;SDS011;33020;53.008;13.558;2023-05-07T01:41:32;13.53;;;8.93;;
47287;SDS011;33020;53.008;13.558;2023-05-07T01:43:59;14.00;;;9.63;;
47287;SDS011;33020;53.008;13.558;2023-05-07T01:46:26;12.67;;;9.30;;
47287;SDS011;33020;53.008;13.558;2023-05-07T01:48:53;14.10;;;8.97;;
47287;SDS011;33020;53.008;13.558;2023-05-07T01:51:20;13.57;;;9.83;;
47287;SDS011;33020;53.008;13.558;2023-05-07T01:53:48;14.07;;;9.70;;
47287;SDS011;33020;53.008;13.558;2023-05-07T01:56:17;14.47;;;10.13;;
47287;SDS011;33020;53.008;13.558;2023-05-07T01:58:45;14.13;;;10.37;;
47287;SDS011;33020;53.008;13.558;2023-05-07T02:01:13;16.17;;;10.57;;
47287;SDS011;33020;53.008;13.558;2023-05-07T02:03:40;19.03;;;11.60;;
47287;SDS011;33020;53.008;13.558;2023-05-07T02:06:07;15.73;;;10.73;;
47287;SDS011;33020;53.008;13.558;2023-05-07T02:08:34;13.47;;;10.33;;
47287;SDS011;33020;53.008;13.558;2023-05-07T02:11:04;15.77;;;10.57;;
47287;SDS011;33020;53.008;13.558;2023-05-07T02:13:33;17.73;;;11.50;;
47287;SDS011;33020;53.008;13.558;2023-05-07T02:16:09;17.15;;;10.40;;
47287;SDS011;33020;53.008;13.558;2023-05-07T02:18:37;17.50;;;11.17;;
47287;SDS011;33020;53.008;13.558;2023-05-07T02:21:04;17.50;;;10.90;;
47287;SDS011;33020;53.008;13.558;2023-05-07T02:23:32;14.83;;;10.40;;
47287;SDS011;33020;53.008;13.558;2023-05-07T02:25:59;15.97;;;10.67;;
47287;SDS011;33020;53.008;13.558;2023-05-07T02:28:26;14.63;;;10.63;;
47287;SDS011;33020;53.008;13.558;2023-05-07T02:30:53;18.87;;;11.47;;
47287;SDS011;33020;53.008;13.558;2023-05-07T02:33:21;17.83;;;10.47;;
47287;SDS011;33020;53.008;13.558;2023-05-07T02:35:48;16.47;;;10.40;;
47287;SDS011;33020;53.008;13.558;2023-05-07T02:38:15;18.30;;;12.13;;
47287;SDS011;33020;53.008;13.558;2023-05-07T02:40:42;15.77;;;10.03;;
47287;SDS011;33020;53.008;13.558;2023-05-07T02:43:08;16.33;;;10.87;;
47287;SDS011;33020;53.008;13.558;2023-05-07T02:45:35;14.20;;;10.67;;
47287;SDS011;33020;53.008;13.558;2023-05-07T02:48:04;13.10;;;9.87;;
47287;SDS011;33020;53.008;13.558;2023-05-07T02:50:32;14.07;;;9.43;;
47287;SDS011;33020;53.008;13.558;2023-05-07T02:52:59;15.53;;;10.90;;
47287;SDS011;33020;53.008;13.558;2023-05-07T02:55:26;14.30;;;9.97;;
47287;SDS011;33020;53.008;13.558;2023-05-07T02:57:53;12.23;;;10.07;;
47287;SDS011;33020;53.008;13.558;2023-05-07T03:00:20;13.73;;;9.13;;
47287;SDS011;33020;53.008;13.558;2023-05-07T03:02:47;15.67;;;10.30;;
47287;SDS011;33020;53.008;13.558;2023-05-07T03:05:14;14.17;;;9.17;;
47287;SDS011;33020;53.008;13.558;2023-05-07T03:07:41;16.30;;;10.73;;
47287;SDS011;33020;53.008;13.558;2023-05-07T03:10:11;14.77;;;10.13;;
47287;SDS011;33020;53.008;13.558;2023-05-07T03:12:39;14.10;;;10.00;;
47287;SDS011;33020;53.008;13.558;2023-05-07T03:15:06;16.20;;;10.63;;
47287;SDS011;33020;53.008;13.558;2023-05-07T03:17:38;15.40;;;10.33;;
47287;SDS011;33020;53.008;13.558;2023-05-07T03:20:05;11.90;;;9.03;;
47287;SDS011;33020;53.008;13.558;2023-05-07T03:22:34;14.07;;;10.23;;
47287;SDS011;33020;53.008;13.558;2023-05-07T03:25:01;13.20;;;9.63;;
47287;SDS011;33020;53.008;13.558;2023-05-07T03:27:28;15.53;;;10.80;;
47287;SDS011;33020;53.008;13.558;2023-05-07T03:29:55;16.23;;;9.80;;
47287;SDS011;33020;53.008;13.558;2023-05-07T03:32:22;16.20;;;9.63;;
47287;SDS011;33020;53.008;13.558;2023-05-07T03:34:49;13.77;;;9.47;;
47287;SDS011;33020;53.008;13.558;2023-05-07T03:37:16;16.67;;;9.27;;
47287;SDS011;33020;53.008;13.558;2023-05-07T03:39:43;15.73;;;10.87;;
47287;SDS011;33020;53.008;13.558;2023-05-07T03:42:10;15.13;;;10.00;;
47287;SDS011;33020;53.008;13.558;2023-05-07T03:44:40;12.83;;;9.10;;
47287;SDS011;33020;53.008;13.558;2023-05-07T03:47:07;14.23;;;10.00;;
47287;SDS011;33020;53.008;13.558;2023-05-07T03:49:34;12.23;;;9.40;;
47287;SDS011;33020;53.008;13.558;2023-05-07T03:52:01;14.57;;;10.00;;
47287;SDS011;33020;53.008;13.558;2023-05-07T03:54:28;13.90;;;9.10;;
47287;SDS011;33020;53.008;13.558;2023-05-07T03:56:55;16.47;;;9.73;;
47287;SDS011;33020;53.008;13.558;2023-05-07T03:59:22;14.17;;;9.73;;
47287;SDS011;33020;53.008;13.558;2023-05-07T04:01:49;15.83;;;9.97;;
47287;SDS011;33020;53.008;13.558;2023-05-07T04:04:16;14.90;;;9.77;;
47287;SDS011;33020;53.008;13.558;2023-05-07T04:06:43;14.67;;;9.57;;
47287;SDS011;33020;53.008;13.558;2023-05-07T04:09:10;13.97;;;9.03;;
47287;SDS011;33020;53.008;13.558;2023-05-07T04:11:37;16.20;;;10.13;;
47287;SDS011;33020;53.008;13.558;2023-05-07T04:14:04;13.30;;;8.87;;
47287;SDS011;33020;53.008;13.558;2023-05-07T04:16:31;13.33;;;9.00;;
47287;SDS011;33020;53.008;13.558;2023-05-07T04:18:58;15.67;;;9.27;;
47287;SDS011;33020;53.008;13.558;2023-05-07T04:21:25;17.33;;;9.10;;
47287;SDS011;33020;53.008;13.558;2023-05-07T04:23:53;14.77;;;9.33;;
47287;SDS011;33020;53.008;13.558;2023-05-07T04:26:22;12.87;;;9.03;;
47287;SDS011;33020;53.008;13.558;2023-05-07T04:28:53;12.97;;;8.47;;
47287;SDS011;33020;53.008;13.558;2023-05-07T04:31:20;14.60;;;9.50;;
47287;SDS011;33020;53.008;13.558;2023-05-07T04:33:48;13.63;;;9.67;;
47287;SDS011;33020;53.008;13.558;2023-05-07T04:36:15;14.53;;;9.57;;
47287;SDS011;33020;53.008;13.558;2023-05-07T04:38:42;14.00;;;9.40;;
47287;SDS011;33020;53.008;13.558;2023-05-07T04:41:09;13.37;;;9.07;;
47287;SDS011;33020;53.008;13.558;2023-05-07T04:43:39;14.03;;;9.13;;
47287;SDS011;33020;53.008;13.558;2023-05-07T04:46:06;14.50;;;9.33;;
47287;SDS011;33020;53.008;13.558;2023-05-07T04:48:35;13.33;;;8.07;;
47287;SDS011;33020;53.008;13.558;2023-05-07T04:51:03;14.23;;;8.47;;
47287;SDS011;33020;53.008;13.558;2023-05-07T04:53:29;16.40;;;8.17;;
47287;SDS011;33020;53.008;13.558;2023-05-07T04:55:56;11.00;;;8.00;;
47287;SDS011;33020;53.008;13.558;2023-05-07T04:58:24;12.53;;;8.27;;
47287;SDS011;33020;53.008;13.558;2023-05-07T05:00:51;12.83;;;7.60;;
47287;SDS011;33020;53.008;13.558;2023-05-07T05:03:18;13.30;;;8.37;;
47287;SDS011;33020;53.008;13.558;2023-05-07T05:05:45;12.53;;;8.40;;
47287;SDS011;33020;53.008;13.558;2023-05-07T05:08:12;12.67;;;8.20;;
47287;SDS011;33020;53.008;13.558;2023-05-07T05:10:39;15.63;;;9.17;;
47287;SDS011;33020;53.008;13.558;2023-05-07T05:13:07;12.40;;;8.13;;
47287;SDS011;33020;53.008;13.558;2023-05-07T05:15:34;14.63;;;8.43;;
47287;SDS011;33020;53.008;13.558;2023-05-07T05:18:01;12.07;;;7.40;;
47287;SDS011;33020;53.008;13.558;2023-05-07T05:20:28;10.50;;;8.07;;
47287;SDS011;33020;53.008;13.558;2023-05-07T05:22:56;13.70;;;8.07;;
47287;SDS011;33020;53.008;13.558;2023-05-07T05:25:23;15.20;;;8.73;;
47287;SDS011;33020;53.008;13.558;2023-05-07T05:27:50;12.13;;;8.13;;
47287;SDS011;33020;53.008;13.558;2023-05-07T05:30:19;13.13;;;8.10;;
47287;SDS011;33020;53.008;13.558;2023-05-07T05:32:47;15.30;;;8.50;;
47287;SDS011;33020;53.008;13.558;2023-05-07T05:35:14;15.00;;;8.57;;
47287;SDS011;33020;53.008;13.558;2023-05-07T05:37:41;12.90;;;7.60;;
47287;SDS011;33020;53.008;13.558;2023-05-07T05:40:09;12.23;;;8.03;;
47287;SDS011;33020;53.008;13.558;2023-05-07T05:42:36;9.80;;;7.30;;
47287;SDS011;33020;53.008;13.558;2023-05-07T05:45:03;11.43;;;7.43;;
47287;SDS011;33020;53.008;13.558;2023-05-07T05:47:30;10.77;;;7.10;;
47287;SDS011;33020;53.008;13.558;2023-05-07T05:49:57;8.20;;;6.50;;
47287;SDS011;33020;53.008;13.558;2023-05-07T05:52:30;9.63;;;6.07;;
47287;SDS011;33020;53.008;13.558;2023-05-07T05:54:57;8.73;;;5.77;;
47287;SDS011;33020;53.008;13.558;2023-05-07T05:57:24;8.30;;;5.70;;
47287;SDS011;33020;53.008;13.558;2023-05-07T05:59:52;8.07;;;5.40;;
47287;SDS011;33020;53.008;13.558;2023-05-07T06:02:19;8.15;;;6.00;;
47287;SDS011;33020;53.008;13.558;2023-05-07T06:04:46;14.10;;;6.22;;
47287;SDS011;33020;53.008;13.558;2023-05-07T06:07:13;8.90;;;5.60;;
47287;SDS011;33020;53.008;13.558;2023-05-07T06:09:40;8.68;;;5.50;;
47287;SDS011;33020;53.008;13.558;2023-05-07T06:12:07;8.88;;;6.13;;
47287;SDS011;33020;53.008;13.558;2023-05-07T06:14:34;7.70;;;5.53;;
47287;SDS011;33020;53.008;13.558;2023-05-07T06:17:00;7.97;;;6.03;;
47287;SDS011;33020;53.008;13.558;2023-05-07T06:19:28;7.05;;;5.22;;
47287;SDS011;33020;53.008;13.558;2023-05-07T06:21:55;7.93;;;4.90;;
47287;SDS011;33020;53.008;13.558;2023-05-07T06:24:23;7.35;;;5.38;;
47287;SDS011;33020;53.008;13.558;2023-05-07T06:26:51;9.02;;;5.00;;
47287;SDS011;33020;53.008;13.558;2023-05-07T06:29:18;8.63;;;5.43;;
47287;SDS011;33020;53.008;13.558;2023-05-07T06:31:45;8.13;;;5.05;;
47287;SDS011;33020;53.008;13.558;2023-05-07T06:34:12;7.50;;;5.15;;
47287;SDS011;33020;53.008;13.558;2023-05-07T06:36:42;6.30;;;4.55;;
47287;SDS011;33020;53.008;13.558;2023-05-07T06:39:11;7.00;;;4.90;;
47287;SDS011;33020;53.008;13.558;2023-05-07T06:41:41;6.75;;;4.20;;
47287;SDS011;33020;53.008;13.558;2023-05-07T06:44:09;8.07;;;4.88;;
47287;SDS011;33020;53.008;13.558;2023-05-07T06:46:36;6.88;;;4.82;;
47287;SDS011;33020;53.008;13.558;2023-05-07T06:49:17;5.72;;;4.93;;
47287;SDS011;33020;53.008;13.558;2023-05-07T06:51:55;6.10;;;4.97;;
47287;SDS011;33020;53.008;13.558;2023-05-07T06:54:22;6.82;;;4.30;;
47287;SDS011;33020;53.008;13.558;2023-05-07T06:56:49;6.28;;;4.38;;
47287;SDS011;33020;53.008;13.558;2023-05-07T06:59:17;9.27;;;4.28;;
47287;SDS011;33020;53.008;13.558;2023-05-07T07:01:44;5.20;;;3.90;;
47287;SDS011;33020;53.008;13.558;2023-05-07T07:04:11;6.18;;;4.10;;
47287;SDS011;33020;53.008;13.558;2023-05-07T07:06:38;6.22;;;4.45;;
47287;SDS011;33020;53.008;13.558;2023-05-07T07:09:05;5.85;;;3.92;;
47287;SDS011;33020;53.008;13.558;2023-05-07T07:11:32;7.43;;;3.97;;
47287;SDS011;33020;53.008;13.558;2023-05-07T07:13:59;6.05;;;3.47;;
47287;SDS011;33020;53.008;13.558;2023-05-07T07:16:26;5.20;;;3.70;;
47287;SDS011;33020;53.008;13.558;2023-05-07T07:18:53;4.80;;;3.65;;
47287;SDS011;33020;53.008;13.558;2023-05-07T07:21:19;4.97;;;3.65;;
47287;SDS011;33020;53.008;13.558;2023-05-07T07:23:47;4.90;;;3.60;;
47287;SDS011;33020;53.008;13.558;2023-05-07T07:26:14;7.07;;;3.83;;
47287;SDS011;33020;53.008;13.558;2023-05-07T07:28:47;6.35;;;4.28;;
47287;SDS011;33020;53.008;13.558;2023-05-07T07:31:14;5.53;;;3.92;;
47287;SDS011;33020;53.008;13.558;2023-05-07T07:33:41;5.45;;;3.10;;
47287;SDS011;33020;53.008;13.558;2023-05-07T07:36:09;8.57;;;3.60;;
47287;SDS011;33020;53.008;13.558;2023-05-07T07:38:36;4.82;;;3.28;;
47287;SDS011;33020;53.008;13.558;2023-05-07T07:41:03;4.18;;;3.35;;
47287;SDS011;33020;53.008;13.558;2023-05-07T07:43:30;6.30;;;3.60;;
47287;SDS011;33020;53.008;13.558;2023-05-07T07:45:57;4.30;;;3.47;;
47287;SDS011;33020;53.008;13.558;2023-05-07T07:48:24;5.15;;;3.83;;
47287;SDS011;33020;53.008;13.558;2023-05-07T07:50:51;5.63;;;3.90;;
47287;SDS011;33020;53.008;13.558;2023-05-07T07:53:18;5.53;;;3.75;;
47287;SDS011;33020;53.008;13.558;2023-05-07T07:55:45;6.78;;;3.97;;
47287;SDS011;33020;53.008;13.558;2023-05-07T07:58:12;6.45;;;3.83;;
47287;SDS011;33020;53.008;13.558;2023-05-07T08:00:39;6.32;;;3.90;;
47287;SDS011;33020;53.008;13.558;2023-05-07T08:03:08;5.88;;;3.60;;
47287;SDS011;33020;53.008;13.558;2023-05-07T08:05:43;5.63;;;4.23;;
47287;SDS011;33020;53.008;13.558;2023-05-07T08:08:13;7.20;;;3.63;;
47287;SDS011;33020;53.008;13.558;2023-05-07T08:10:53;5.70;;;3.47;;
47287;SDS011;33020;53.008;13.558;2023-05-07T08:13:25;6.15;;;3.50;;
47287;SDS011;33020;53.008;13.558;2023-05-07T08:15:55;4.65;;;3.40;;
47287;SDS011;33020;53.008;13.558;2023-05-07T08:18:22;4.45;;;3.22;;
47287;SDS011;33020;53.008;13.558;2023-05-07T08:20:51;6.57;;;4.13;;
47287;SDS011;33020;53.008;13.558;2023-05-07T08:23:20;5.22;;;3.67;;
47287;SDS011;33020;53.008;13.558;2023-05-07T08:25:48;4.97;;;3.42;;
47287;SDS011;33020;53.008;13.558;2023-05-07T08:28:16;4.75;;;3.38;;
47287;SDS011;33020;53.008;13.558;2023-05-07T08:30:43;5.20;;;3.55;;
47287;SDS011;33020;53.008;13.558;2023-05-07T08:33:10;6.18;;;3.35;;
47287;SDS011;33020;53.008;13.558;2023-05-07T08:35:39;4.50;;;3.20;;
47287;SDS011;33020;53.008;13.558;2023-05-07T08:38:06;3.20;;;2.78;;
47287;SDS011;33020;53.008;13.558;2023-05-07T08:40:40;6.40;;;3.33;;
47287;SDS011;33020;53.008;13.558;2023-05-07T08:43:14;4.93;;;3.22;;
47287;SDS011;33020;53.008;13.558;2023-05-07T08:45:44;6.25;;;3.17;;
47287;SDS011;33020;53.008;13.558;2023-05-07T08:48:16;5.07;;;3.03;;
47287;SDS011;33020;53.008;13.558;2023-05-07T08:50:43;4.22;;;2.97;;
47287;SDS011;33020;53.008;13.558;2023-05-07T08:53:10;5.18;;;3.63;;
47287;SDS011;33020;53.008;13.558;2023-05-07T08:55:37;4.07;;;3.05;;
47287;SDS011;33020;53.008;13.558;2023-05-07T08:58:04;4.43;;;3.47;;
47287;SDS011;33020;53.008;13.558;2023-05-07T09:00:31;4.90;;;3.20;;
47287;SDS011;33020;53.008;13.558;2023-05-07T09:02:59;9.32;;;7.05;;
47287;SDS011;33020;53.008;13.558;2023-05-07T09:05:27;5.05;;;2.83;;
47287;SDS011;33020;53.008;13.558;2023-05-07T09:07:54;3.08;;;2.78;;
47287;SDS011;33020;53.008;13.558;2023-05-07T09:10:23;5.82;;;4.18;;
47287;SDS011;33020;53.008;13.558;2023-05-07T09:12:50;5.45;;;2.95;;
47287;SDS011;33020;53.008;13.558;2023-05-07T09:15:18;4.20;;;2.20;;
47287;SDS011;33020;53.008;13.558;2023-05-07T09:17:45;4.15;;;2.60;;
47287;SDS011;33020;53.008;13.558;2023-05-07T09:20:12;10.90;;;2.65;;
47287;SDS011;33020;53.008;13.558;2023-05-07T09:22:39;2.85;;;2.33;;
47287;SDS011;33020;53.008;13.558;2023-05-07T09:25:06;3.83;;;2.75;;
47287;SDS011;33020;53.008;13.558;2023-05-07T09:27:35;3.80;;;2.20;;
47287;SDS011;33020;53.008;13.558;2023-05-07T09:30:08;2.45;;;2.00;;
47287;SDS011;33020;53.008;13.558;2023-05-07T09:32:36;3.72;;;3.40;;
47287;SDS011;33020;53.008;13.558;2023-05-07T09:35:08;3.05;;;2.30;;
47287;SDS011;33020;53.008;13.558;2023-05-07T09:37:42;5.97;;;2.75;;
47287;SDS011;33020;53.008;13.558;2023-05-07T09:40:19;4.22;;;2.00;;
47287;SDS011;33020;53.008;13.558;2023-05-07T09:42:47;3.05;;;2.08;;
47287;SDS011;33020;53.008;13.558;2023-05-07T09:45:16;4.85;;;2.30;;
47287;SDS011;33020;53.008;13.558;2023-05-07T09:47:48;4.00;;;2.38;;
47287;SDS011;33020;53.008;13.558;2023-05-07T09:50:16;4.88;;;2.60;;
47287;SDS011;33020;53.008;13.558;2023-05-07T09:52:44;3.35;;;2.15;;
47287;SDS011;33020;53.008;13.558;2023-05-07T09:55:11;3.35;;;1.90;;
47287;SDS011;33020;53.008;13.558;2023-05-07T09:57:39;3.35;;;1.98;;
47287;SDS011;33020;53.008;13.558;2023-05-07T10:00:07;3.17;;;2.15;;
47287;SDS011;33020;53.008;13.558;2023-05-07T10:02:35;3.45;;;2.17;;
47287;SDS011;33020;53.008;13.558;2023-05-07T10:05:03;3.60;;;2.08;;
47287;SDS011;33020;53.008;13.558;2023-05-07T10:07:31;3.20;;;2.38;;
47287;SDS011;33020;53.008;13.558;2023-05-07T10:09:58;3.47;;;2.38;;
47287;SDS011;33020;53.008;13.558;2023-05-07T10:12:25;3.38;;;2.20;;
47287;SDS011;33020;53.008;13.558;2023-05-07T10:14:53;4.43;;;2.50;;
47287;SDS011;33020;53.008;13.558;2023-05-07T10:17:23;3.13;;;1.85;;
47287;SDS011;33020;53.008;13.558;2023-05-07T10:19:50;4.30;;;2.08;;
47287;SDS011;33020;53.008;13.558;2023-05-07T10:22:17;2.40;;;2.20;;
47287;SDS011;33020;53.008;13.558;2023-05-07T10:24:44;4.25;;;2.20;;
47287;SDS011;33020;53.008;13.558;2023-05-07T10:27:12;5.43;;;2.72;;
47287;SDS011;33020;53.008;13.558;2023-05-07T10:32:29;3.35;;;2.45;;
47287;SDS011;33020;53.008;13.558;2023-05-07T10:35:09;4.07;;;2.50;;
47287;SDS011;33020;53.008;13.558;2023-05-07T10:37:40;2.30;;;2.10;;
47287;SDS011;33020;53.008;13.558;2023-05-07T10:40:08;3.50;;;1.80;;
47287;SDS011;33020;53.008;13.558;2023-05-07T10:42:36;3.40;;;2.20;;
47287;SDS011;33020;53.008;13.558;2023-05-07T10:45:15;3.33;;;1.80;;
47287;SDS011;33020;53.008;13.558;2023-05-07T10:50:46;3.30;;;2.10;;
47287;SDS011;33020;53.008;13.558;2023-05-07T10:55:47;2.13;;;1.90;;
47287;SDS011;33020;53.008;13.558;2023-05-07T11:00:57;2.78;;;1.83;;
47287;SDS011;33020;53.008;13.558;2023-05-07T11:03:26;3.58;;;2.13;;
47287;SDS011;33020;53.008;13.558;2023-05-07T11:11:20;3.03;;;2.08;;
47287;SDS011;33020;53.008;13.558;2023-05-07T11:14:42;3.17;;;2.20;;
47287;SDS011;33020;53.008;13.558;2023-05-07T11:17:10;4.10;;;2.20;;
47287;SDS011;33020;53.008;13.558;2023-05-07T11:19:50;2.92;;;2.15;;
47287;SDS011;33020;53.008;13.558;2023-05-07T11:25:01;3.00;;;1.90;;
47287;SDS011;33020;53.008;13.558;2023-05-07T11:27:29;3.75;;;2.33;;
47287;SDS011;33020;53.008;13.558;2023-05-07T11:29:56;3.15;;;2.30;;
47287;SDS011;33020;53.008;13.558;2023-05-07T11:32:26;2.63;;;2.05;;
47287;SDS011;33020;53.008;13.558;2023-05-07T11:34:57;2.63;;;1.90;;
47287;SDS011;33020;53.008;13.558;2023-05-07T11:37:26;3.40;;;2.47;;
47287;SDS011;33020;53.008;13.558;2023-05-07T11:40:15;4.80;;;2.42;;
47287;SDS011;33020;53.008;13.558;2023-05-07T11:42:41;3.83;;;2.35;;
47287;SDS011;33020;53.008;13.558;2023-05-07T11:45:09;9.40;;;8.52;;
47287;SDS011;33020;53.008;13.558;2023-05-07T11:47:37;3.58;;;2.25;;
47287;SDS011;33020;53.008;13.558;2023-05-07T11:50:04;3.30;;;2.20;;
47287;SDS011;33020;53.008;13.558;2023-05-07T11:52:34;3.63;;;2.15;;
47287;SDS011;33020;53.008;13.558;2023-05-07T11:55:02;3.78;;;2.20;;
47287;SDS011;33020;53.008;13.558;2023-05-07T11:57:32;3.10;;;2.10;;
47287;SDS011;33020;53.008;13.558;2023-05-07T12:00:00;5.15;;;2.75;;
47287;SDS011;33020;53.008;13.558;2023-05-07T12:02:35;2.67;;;2.20;;
47287;SDS011;33020;53.008;13.558;2023-05-07T12:05:23;3.53;;;2.50;;
47287;SDS011;33020;53.008;13.558;2023-05-07T12:07:55;2.78;;;2.22;;
47287;SDS011;33020;53.008;13.558;2023-05-07T12:10:25;2.85;;;2.20;;
47287;SDS011;33020;53.008;13.558;2023-05-07T12:12:52;2.28;;;2.05;;
47287;SDS011;33020;53.008;13.558;2023-05-07T12:15:23;4.03;;;2.78;;
47287;SDS011;33020;53.008;13.558;2023-05-07T12:17:50;5.18;;;2.40;;
47287;SDS011;33020;53.008;13.558;2023-05-07T12:20:19;3.55;;;2.20;;
47287;SDS011;33020;53.008;13.558;2023-05-07T12:22:46;4.28;;;3.13;;
47287;SDS011;33020;53.008;13.558;2023-05-07T12:25:14;4.28;;;2.30;;
47287;SDS011;33020;53.008;13.558;2023-05-07T12:27:45;2.83;;;2.15;;
47287;SDS011;33020;53.008;13.558;2023-05-07T12:30:18;4.15;;;2.33;;
47287;SDS011;33020;53.008;13.558;2023-05-07T12:32:45;2.72;;;2.20;;
47287;SDS011;33020;53.008;13.558;2023-05-07T12:35:14;3.50;;;2.72;;
47287;SDS011;33020;53.008;13.558;2023-05-07T12:37:44;3.50;;;2.50;;
47287;SDS011;33020;53.008;13.558;2023-05-07T12:40:50;3.75;;;2.05;;
47287;SDS011;33020;53.008;13.558;2023-05-07T12:43:20;4.20;;;2.38;;
47287;SDS011;33020;53.008;13.558;2023-05-07T12:45:56;3.53;;;2.35;;
47287;SDS011;33020;53.008;13.558;2023-05-07T12:48:24;4.55;;;2.53;;
47287;SDS011;33020;53.008;13.558;2023-05-07T12:50:53;3.60;;;2.47;;
47287;SDS011;33020;53.008;13.558;2023-05-07T12:53:22;4.75;;;2.30;;
47287;SDS011;33020;53.008;13.558;2023-05-07T12:55:52;4.35;;;2.50;;
47287;SDS011;33020;53.008;13.558;2023-05-07T12:58:29;3.55;;;2.20;;
47287;SDS011;33020;53.008;13.558;2023-05-07T13:01:00;2.78;;;2.30;;
47287;SDS011;33020;53.008;13.558;2023-05-07T13:03:33;3.40;;;2.75;;
47287;SDS011;33020;53.008;13.558;2023-05-07T13:06:02;7.93;;;2.83;;
47287;SDS011;33020;53.008;13.558;2023-05-07T13:11:04;6.43;;;3.40;;
47287;SDS011;33020;53.008;13.558;2023-05-07T13:13:31;3.13;;;2.45;;
47287;SDS011;33020;53.008;13.558;2023-05-07T13:15:59;3.50;;;2.85;;
47287;SDS011;33020;53.008;13.558;2023-05-07T13:18:29;3.80;;;3.20;;
47287;SDS011;33020;53.008;13.558;2023-05-07T13:20:56;3.67;;;2.60;;
47287;SDS011;33020;53.008;13.558;2023-05-07T13:23:23;3.58;;;2.70;;
47287;SDS011;33020;53.008;13.558;2023-05-07T13:25:53;2.97;;;2.35;;
47287;SDS011;33020;53.008;13.558;2023-05-07T13:28:21;3.88;;;2.40;;
47287;SDS011;33020;53.008;13.558;2023-05-07T13:30:48;4.50;;;2.30;;
47287;SDS011;33020;53.008;13.558;2023-05-07T13:36:38;4.05;;;2.70;;
47287;SDS011;33020;53.008;13.558;2023-05-07T13:39:15;4.78;;;2.78;;
47287;SDS011;33020;53.008;13.558;2023-05-07T13:41:42;4.35;;;2.90;;
47287;SDS011;33020;53.008;13.558;2023-05-07T13:44:13;5.72;;;3.17;;
47287;SDS011;33020;53.008;13.558;2023-05-07T13:46:45;4.20;;;2.67;;
47287;SDS011;33020;53.008;13.558;2023-05-07T13:49:12;2.80;;;2.60;;
47287;SDS011;33020;53.008;13.558;2023-05-07T13:51:40;4.75;;;2.88;;
47287;SDS011;33020;53.008;13.558;2023-05-07T13:54:07;4.88;;;2.78;;
47287;SDS011;33020;53.008;13.558;2023-05-07T13:56:34;3.00;;;2.50;;
47287;SDS011;33020;53.008;13.558;2023-05-07T13:59:02;2.92;;;2.63;;
47287;SDS011;33020;53.008;13.558;2023-05-07T14:01:29;3.70;;;2.63;;
47287;SDS011;33020;53.008;13.558;2023-05-07T14:03:57;3.38;;;2.85;;
47287;SDS011;33020;53.008;13.558;2023-05-07T14:06:26;3.78;;;2.85;;
47287;SDS011;33020;53.008;13.558;2023-05-07T14:08:53;5.47;;;2.85;;
47287;SDS011;33020;53.008;13.558;2023-05-07T14:11:19;7.38;;;2.90;;
47287;SDS011;33020;53.008;13.558;2023-05-07T14:13:47;3.60;;;2.65;;
47287;SDS011;33020;53.008;13.558;2023-05-07T14:16:15;4.45;;;2.30;;
47287;SDS011;33020;53.008;13.558;2023-05-07T14:18:43;4.63;;;2.60;;
47287;SDS011;33020;53.008;13.558;2023-05-07T14:21:10;2.90;;;2.42;;
47287;SDS011;33020;53.008;13.558;2023-05-07T14:23:38;3.90;;;2.45;;
47287;SDS011;33020;53.008;13.558;2023-05-07T14:26:05;3.92;;;2.50;;
47287;SDS011;33020;53.008;13.558;2023-05-07T14:28:32;7.13;;;3.20;;
47287;SDS011;33020;53.008;13.558;2023-05-07T14:30:59;4.00;;;3.38;;
47287;SDS011;33020;53.008;13.558;2023-05-07T14:33:26;4.40;;;4.00;;
47287;SDS011;33020;53.008;13.558;2023-05-07T14:35:53;3.63;;;2.80;;
47287;SDS011;33020;53.008;13.558;2023-05-07T14:38:21;3.53;;;2.83;;
47287;SDS011;33020;53.008;13.558;2023-05-07T14:40:48;6.97;;;5.55;;
47287;SDS011;33020;53.008;13.558;2023-05-07T14:43:15;4.13;;;2.97;;
47287;SDS011;33020;53.008;13.558;2023-05-07T14:45:42;3.78;;;2.50;;
47287;SDS011;33020;53.008;13.558;2023-05-07T14:48:09;4.80;;;3.00;;
47287;SDS011;33020;53.008;13.558;2023-05-07T14:50:42;4.45;;;2.30;;
47287;SDS011;33020;53.008;13.558;2023-05-07T14:53:09;3.85;;;2.80;;
47287;SDS011;33020;53.008;13.558;2023-05-07T14:55:36;4.32;;;2.70;;
47287;SDS011;33020;53.008;13.558;2023-05-07T14:58:03;2.42;;;2.03;;
47287;SDS011;33020;53.008;13.558;2023-05-07T15:00:30;3.88;;;2.88;;